sensor_id;sensor_type;location;lat;lon;timestamp;P1;durP1;ratioP1;P2;durP2;ratioP2
40284;SDS011;25997;50.214;19.354;2022-08-30T00:01:51;12.18;;;8.27;;
40284;SDS011;25997;50.214;19.354;2022-08-30T00:04:54;14.30;;;8.20;;
40284;SDS011;25997;50.214;19.354;2022-08-30T00:08:01;11.40;;;8.18;;
40284;SDS011;25997;50.214;19.354;2022-08-30T00:11:04;13.48;;;7.90;;
40284;SDS011;25997;50.214;19.354;2022-08-30T00:14:09;12.50;;;6.88;;
40284;SDS011;25997;50.214;19.354;2022-08-30T00:17:12;12.90;;;7.78;;
40284;SDS011;25997;50.214;19.354;2022-08-30T00:20:17;12.85;;;7.65;;
40284;SDS011;25997;50.214;19.354;2022-08-30T00:23:21;15.10;;;8.38;;
40284;SDS011;25997;50.214;19.354;2022-08-30T00:26:24;16.05;;;7.85;;
40284;SDS011;25997;50.214;19.354;2022-08-30T00:29:26;14.80;;;7.90;;
40284;SDS011;25997;50.214;19.354;2022-08-30T00:32:29;16.10;;;8.07;;
40284;SDS011;25997;50.214;19.354;2022-08-30T00:35:33;14.68;;;7.93;;
40284;SDS011;25997;50.214;19.354;2022-08-30T00:38:36;11.65;;;7.68;;
40284;SDS011;25997;50.214;19.354;2022-08-30T00:41:38;11.20;;;8.00;;
40284;SDS011;25997;50.214;19.354;2022-08-30T00:44:42;11.07;;;7.65;;
40284;SDS011;25997;50.214;19.354;2022-08-30T00:47:46;15.02;;;8.95;;
40284;SDS011;25997;50.214;19.354;2022-08-30T00:50:51;15.85;;;9.45;;
40284;SDS011;25997;50.214;19.354;2022-08-30T00:53:58;14.23;;;10.35;;
40284;SDS011;25997;50.214;19.354;2022-08-30T00:57:02;15.85;;;10.43;;
40284;SDS011;25997;50.214;19.354;2022-08-30T01:00:06;16.75;;;10.55;;
40284;SDS011;25997;50.214;19.354;2022-08-30T01:03:09;15.15;;;10.35;;
40284;SDS011;25997;50.214;19.354;2022-08-30T01:06:13;14.68;;;10.00;;
40284;SDS011;25997;50.214;19.354;2022-08-30T01:09:17;18.52;;;9.98;;
40284;SDS011;25997;50.214;19.354;2022-08-30T01:12:21;11.15;;;8.13;;
40284;SDS011;25997;50.214;19.354;2022-08-30T01:15:23;15.57;;;8.95;;
40284;SDS011;25997;50.214;19.354;2022-08-30T01:18:26;12.88;;;8.25;;
40284;SDS011;25997;50.214;19.354;2022-08-30T01:21:33;13.02;;;8.30;;
40284;SDS011;25997;50.214;19.354;2022-08-30T01:24:42;18.83;;;10.15;;
40284;SDS011;25997;50.214;19.354;2022-08-30T01:27:49;14.55;;;8.65;;
40284;SDS011;25997;50.214;19.354;2022-08-30T01:30:54;17.15;;;9.80;;
40284;SDS011;25997;50.214;19.354;2022-08-30T01:33:57;13.35;;;8.32;;
40284;SDS011;25997;50.214;19.354;2022-08-30T01:36:59;10.43;;;7.22;;
40284;SDS011;25997;50.214;19.354;2022-08-30T01:40:04;9.30;;;7.57;;
40284;SDS011;25997;50.214;19.354;2022-08-30T01:43:08;16.58;;;10.48;;
40284;SDS011;25997;50.214;19.354;2022-08-30T01:46:13;20.52;;;12.00;;
40284;SDS011;25997;50.214;19.354;2022-08-30T01:49:18;14.32;;;9.68;;
40284;SDS011;25997;50.214;19.354;2022-08-30T01:52:21;28.42;;;17.33;;
40284;SDS011;25997;50.214;19.354;2022-08-30T01:55:25;15.25;;;9.90;;
40284;SDS011;25997;50.214;19.354;2022-08-30T01:58:27;15.70;;;10.43;;
40284;SDS011;25997;50.214;19.354;2022-08-30T02:01:31;15.95;;;10.23;;
40284;SDS011;25997;50.214;19.354;2022-08-30T02:04:36;20.05;;;12.00;;
40284;SDS011;25997;50.214;19.354;2022-08-30T02:07:38;14.20;;;10.98;;
40284;SDS011;25997;50.214;19.354;2022-08-30T02:10:42;14.85;;;10.18;;
40284;SDS011;25997;50.214;19.354;2022-08-30T02:13:45;15.75;;;9.15;;
40284;SDS011;25997;50.214;19.354;2022-08-30T02:16:48;14.80;;;9.82;;
40284;SDS011;25997;50.214;19.354;2022-08-30T02:19:50;14.40;;;9.88;;
40284;SDS011;25997;50.214;19.354;2022-08-30T02:22:53;14.13;;;9.82;;
40284;SDS011;25997;50.214;19.354;2022-08-30T02:25:57;13.65;;;10.18;;
40284;SDS011;25997;50.214;19.354;2022-08-30T02:29:01;16.00;;;11.35;;
40284;SDS011;25997;50.214;19.354;2022-08-30T02:32:04;14.75;;;12.82;;
40284;SDS011;25997;50.214;19.354;2022-08-30T02:35:07;15.52;;;12.32;;
40284;SDS011;25997;50.214;19.354;2022-08-30T02:38:10;14.85;;;11.02;;
40284;SDS011;25997;50.214;19.354;2022-08-30T02:41:14;19.25;;;16.63;;
40284;SDS011;25997;50.214;19.354;2022-08-30T02:44:17;21.00;;;16.52;;
40284;SDS011;25997;50.214;19.354;2022-08-30T02:47:19;21.30;;;16.80;;
40284;SDS011;25997;50.214;19.354;2022-08-30T02:50:22;24.73;;;20.20;;
40284;SDS011;25997;50.214;19.354;2022-08-30T02:53:24;23.88;;;19.35;;
40284;SDS011;25997;50.214;19.354;2022-08-30T02:56:28;21.92;;;19.05;;
40284;SDS011;25997;50.214;19.354;2022-08-30T02:59:31;22.75;;;19.50;;
40284;SDS011;25997;50.214;19.354;2022-08-30T03:02:37;23.75;;;17.77;;
40284;SDS011;25997;50.214;19.354;2022-08-30T03:05:40;22.45;;;17.42;;
40284;SDS011;25997;50.214;19.354;2022-08-30T03:08:42;24.02;;;18.15;;
40284;SDS011;25997;50.214;19.354;2022-08-30T03:11:47;21.95;;;18.73;;
40284;SDS011;25997;50.214;19.354;2022-08-30T03:14:49;23.50;;;18.40;;
40284;SDS011;25997;50.214;19.354;2022-08-30T03:17:52;22.17;;;17.85;;
40284;SDS011;25997;50.214;19.354;2022-08-30T03:20:56;20.67;;;17.33;;
40284;SDS011;25997;50.214;19.354;2022-08-30T03:23:59;22.02;;;18.80;;
40284;SDS011;25997;50.214;19.354;2022-08-30T03:27:03;22.75;;;17.77;;
40284;SDS011;25997;50.214;19.354;2022-08-30T03:30:07;22.85;;;17.63;;
40284;SDS011;25997;50.214;19.354;2022-08-30T03:33:11;22.13;;;18.27;;
40284;SDS011;25997;50.214;19.354;2022-08-30T03:36:14;21.02;;;16.73;;
40284;SDS011;25997;50.214;19.354;2022-08-30T03:39:17;19.20;;;16.92;;
40284;SDS011;25997;50.214;19.354;2022-08-30T03:42:21;19.58;;;14.52;;
40284;SDS011;25997;50.214;19.354;2022-08-30T03:45:23;25.38;;;16.20;;
40284;SDS011;25997;50.214;19.354;2022-08-30T03:48:26;21.15;;;17.52;;
40284;SDS011;25997;50.214;19.354;2022-08-30T03:51:29;23.75;;;17.52;;
40284;SDS011;25997;50.214;19.354;2022-08-30T03:54:32;22.15;;;15.70;;
40284;SDS011;25997;50.214;19.354;2022-08-30T03:57:36;21.85;;;15.13;;
40284;SDS011;25997;50.214;19.354;2022-08-30T04:00:40;21.88;;;15.60;;
40284;SDS011;25997;50.214;19.354;2022-08-30T04:03:43;23.58;;;15.02;;
40284;SDS011;25997;50.214;19.354;2022-08-30T04:06:46;18.10;;;13.98;;
40284;SDS011;25997;50.214;19.354;2022-08-30T04:09:49;16.65;;;10.88;;
40284;SDS011;25997;50.214;19.354;2022-08-30T04:12:53;16.58;;;14.20;;
40284;SDS011;25997;50.214;19.354;2022-08-30T04:15:56;19.00;;;14.95;;
40284;SDS011;25997;50.214;19.354;2022-08-30T04:18:59;23.45;;;15.10;;
40284;SDS011;25997;50.214;19.354;2022-08-30T04:22:01;19.15;;;17.15;;
40284;SDS011;25997;50.214;19.354;2022-08-30T04:25:06;18.38;;;15.45;;
40284;SDS011;25997;50.214;19.354;2022-08-30T04:28:11;17.65;;;14.38;;
40284;SDS011;25997;50.214;19.354;2022-08-30T04:31:14;18.35;;;15.23;;
40284;SDS011;25997;50.214;19.354;2022-08-30T04:34:18;16.77;;;14.35;;
40284;SDS011;25997;50.214;19.354;2022-08-30T04:37:21;18.90;;;15.10;;
40284;SDS011;25997;50.214;19.354;2022-08-30T04:40:23;18.73;;;14.93;;
40284;SDS011;25997;50.214;19.354;2022-08-30T04:43:27;18.90;;;15.50;;
40284;SDS011;25997;50.214;19.354;2022-08-30T04:46:30;16.17;;;11.73;;
40284;SDS011;25997;50.214;19.354;2022-08-30T04:49:32;14.77;;;11.27;;
40284;SDS011;25997;50.214;19.354;2022-08-30T04:52:35;16.73;;;10.82;;
40284;SDS011;25997;50.214;19.354;2022-08-30T04:55:38;30.13;;;18.50;;
40284;SDS011;25997;50.214;19.354;2022-08-30T04:58:43;28.33;;;20.90;;
40284;SDS011;25997;50.214;19.354;2022-08-30T05:01:45;24.63;;;16.30;;
40284;SDS011;25997;50.214;19.354;2022-08-30T05:04:48;17.30;;;15.15;;
40284;SDS011;25997;50.214;19.354;2022-08-30T05:08:08;16.63;;;14.88;;
40284;SDS011;25997;50.214;19.354;2022-08-30T05:11:13;16.58;;;14.73;;
40284;SDS011;25997;50.214;19.354;2022-08-30T05:14:18;21.02;;;15.25;;
40284;SDS011;25997;50.214;19.354;2022-08-30T05:17:21;17.77;;;13.27;;
40284;SDS011;25997;50.214;19.354;2022-08-30T05:20:23;19.80;;;15.27;;
40284;SDS011;25997;50.214;19.354;2022-08-30T05:23:26;20.42;;;14.73;;
40284;SDS011;25997;50.214;19.354;2022-08-30T05:26:29;18.65;;;16.70;;
40284;SDS011;25997;50.214;19.354;2022-08-30T05:29:34;26.23;;;22.83;;
40284;SDS011;25997;50.214;19.354;2022-08-30T05:32:37;21.20;;;17.25;;
40284;SDS011;25997;50.214;19.354;2022-08-30T05:35:39;22.77;;;20.35;;
40284;SDS011;25997;50.214;19.354;2022-08-30T05:38:42;26.38;;;20.40;;
40284;SDS011;25997;50.214;19.354;2022-08-30T05:41:45;21.85;;;18.17;;
40284;SDS011;25997;50.214;19.354;2022-08-30T05:44:50;22.85;;;18.63;;
40284;SDS011;25997;50.214;19.354;2022-08-30T05:47:53;19.83;;;17.75;;
40284;SDS011;25997;50.214;19.354;2022-08-30T05:51:05;18.63;;;16.70;;
40284;SDS011;25997;50.214;19.354;2022-08-30T05:54:10;18.77;;;15.30;;
40284;SDS011;25997;50.214;19.354;2022-08-30T05:57:14;15.68;;;14.07;;
40284;SDS011;25997;50.214;19.354;2022-08-30T06:00:19;17.83;;;14.82;;
40284;SDS011;25997;50.214;19.354;2022-08-30T06:03:21;19.15;;;14.75;;
40284;SDS011;25997;50.214;19.354;2022-08-30T06:06:24;14.93;;;12.75;;
40284;SDS011;25997;50.214;19.354;2022-08-30T06:09:28;16.98;;;13.05;;
40284;SDS011;25997;50.214;19.354;2022-08-30T06:12:30;16.55;;;13.35;;
40284;SDS011;25997;50.214;19.354;2022-08-30T06:15:35;15.00;;;13.43;;
40284;SDS011;25997;50.214;19.354;2022-08-30T06:18:38;15.93;;;13.73;;
40284;SDS011;25997;50.214;19.354;2022-08-30T06:21:41;15.40;;;13.80;;
40284;SDS011;25997;50.214;19.354;2022-08-30T06:24:44;15.82;;;12.48;;
40284;SDS011;25997;50.214;19.354;2022-08-30T06:27:46;17.70;;;12.82;;
40284;SDS011;25997;50.214;19.354;2022-08-30T06:30:50;19.73;;;12.93;;
40284;SDS011;25997;50.214;19.354;2022-08-30T06:33:53;14.65;;;12.32;;
40284;SDS011;25997;50.214;19.354;2022-08-30T06:36:56;15.75;;;12.43;;
40284;SDS011;25997;50.214;19.354;2022-08-30T06:39:59;15.43;;;11.57;;
40284;SDS011;25997;50.214;19.354;2022-08-30T06:43:02;14.63;;;10.90;;
40284;SDS011;25997;50.214;19.354;2022-08-30T06:46:07;17.45;;;11.38;;
40284;SDS011;25997;50.214;19.354;2022-08-30T06:49:11;15.85;;;12.70;;
40284;SDS011;25997;50.214;19.354;2022-08-30T06:52:13;15.30;;;11.75;;
40284;SDS011;25997;50.214;19.354;2022-08-30T06:55:17;14.05;;;10.05;;
40284;SDS011;25997;50.214;19.354;2022-08-30T06:58:20;12.48;;;9.55;;
40284;SDS011;25997;50.214;19.354;2022-08-30T07:01:24;14.05;;;11.13;;
40284;SDS011;25997;50.214;19.354;2022-08-30T07:04:28;14.95;;;11.02;;
40284;SDS011;25997;50.214;19.354;2022-08-30T07:07:31;15.50;;;10.75;;
40284;SDS011;25997;50.214;19.354;2022-08-30T07:10:35;10.30;;;9.13;;
40284;SDS011;25997;50.214;19.354;2022-08-30T07:13:39;12.38;;;10.98;;
40284;SDS011;25997;50.214;19.354;2022-08-30T07:16:43;16.10;;;10.38;;
40284;SDS011;25997;50.214;19.354;2022-08-30T07:19:47;13.77;;;10.18;;
40284;SDS011;25997;50.214;19.354;2022-08-30T07:22:49;11.98;;;9.35;;
40284;SDS011;25997;50.214;19.354;2022-08-30T07:25:52;10.80;;;9.15;;
40284;SDS011;25997;50.214;19.354;2022-08-30T07:28:54;8.63;;;7.70;;
40284;SDS011;25997;50.214;19.354;2022-08-30T07:31:59;9.95;;;8.23;;
40284;SDS011;25997;50.214;19.354;2022-08-30T07:35:01;11.63;;;8.60;;
40284;SDS011;25997;50.214;19.354;2022-08-30T07:38:04;13.05;;;10.25;;
40284;SDS011;25997;50.214;19.354;2022-08-30T07:41:06;11.25;;;8.75;;
40284;SDS011;25997;50.214;19.354;2022-08-30T07:44:09;14.45;;;9.30;;
40284;SDS011;25997;50.214;19.354;2022-08-30T07:47:13;12.43;;;9.07;;
40284;SDS011;25997;50.214;19.354;2022-08-30T07:50:16;7.75;;;6.35;;
40284;SDS011;25997;50.214;19.354;2022-08-30T07:53:19;8.48;;;7.05;;
40284;SDS011;25997;50.214;19.354;2022-08-30T07:56:21;9.10;;;7.15;;
40284;SDS011;25997;50.214;19.354;2022-08-30T07:59:25;9.70;;;7.75;;
40284;SDS011;25997;50.214;19.354;2022-08-30T08:02:29;9.23;;;7.03;;
40284;SDS011;25997;50.214;19.354;2022-08-30T08:05:35;11.43;;;8.27;;
40284;SDS011;25997;50.214;19.354;2022-08-30T08:08:39;8.45;;;7.65;;
40284;SDS011;25997;50.214;19.354;2022-08-30T08:11:42;10.43;;;8.40;;
40284;SDS011;25997;50.214;19.354;2022-08-30T08:14:45;11.27;;;8.75;;
40284;SDS011;25997;50.214;19.354;2022-08-30T08:17:49;14.93;;;8.98;;
40284;SDS011;25997;50.214;19.354;2022-08-30T08:20:51;13.20;;;9.38;;
40284;SDS011;25997;50.214;19.354;2022-08-30T08:23:54;14.48;;;10.45;;
40284;SDS011;25997;50.214;19.354;2022-08-30T08:26:56;12.43;;;9.80;;
40284;SDS011;25997;50.214;19.354;2022-08-30T08:29:59;11.95;;;9.75;;
40284;SDS011;25997;50.214;19.354;2022-08-30T08:33:03;16.95;;;10.65;;
40284;SDS011;25997;50.214;19.354;2022-08-30T08:36:07;11.15;;;8.88;;
40284;SDS011;25997;50.214;19.354;2022-08-30T08:39:09;12.20;;;8.68;;
40284;SDS011;25997;50.214;19.354;2022-08-30T08:42:14;9.43;;;7.95;;
40284;SDS011;25997;50.214;19.354;2022-08-30T08:45:29;12.23;;;8.88;;
40284;SDS011;25997;50.214;19.354;2022-08-30T08:48:42;10.98;;;8.68;;
40284;SDS011;25997;50.214;19.354;2022-08-30T08:51:49;13.82;;;9.75;;
40284;SDS011;25997;50.214;19.354;2022-08-30T08:55:09;11.15;;;9.05;;
40284;SDS011;25997;50.214;19.354;2022-08-30T08:58:16;9.68;;;6.60;;
40284;SDS011;25997;50.214;19.354;2022-08-30T09:04:30;7.22;;;6.40;;
40284;SDS011;25997;50.214;19.354;2022-08-30T09:07:37;6.90;;;6.03;;
40284;SDS011;25997;50.214;19.354;2022-08-30T09:10:45;10.02;;;6.68;;
40284;SDS011;25997;50.214;19.354;2022-08-30T09:13:51;8.83;;;4.93;;
40284;SDS011;25997;50.214;19.354;2022-08-30T09:16:58;5.22;;;4.53;;
40284;SDS011;25997;50.214;19.354;2022-08-30T09:20:03;6.40;;;5.00;;
40284;SDS011;25997;50.214;19.354;2022-08-30T09:23:20;7.78;;;6.35;;
40284;SDS011;25997;50.214;19.354;2022-08-30T09:26:27;7.20;;;5.82;;
40284;SDS011;25997;50.214;19.354;2022-08-30T09:29:31;9.20;;;6.22;;
40284;SDS011;25997;50.214;19.354;2022-08-30T09:32:35;9.02;;;6.68;;
40284;SDS011;25997;50.214;19.354;2022-08-30T09:35:42;8.32;;;7.53;;
40284;SDS011;25997;50.214;19.354;2022-08-30T09:38:46;9.13;;;7.63;;
40284;SDS011;25997;50.214;19.354;2022-08-30T09:42:09;8.43;;;7.50;;
40284;SDS011;25997;50.214;19.354;2022-08-30T09:45:18;9.57;;;6.35;;
40284;SDS011;25997;50.214;19.354;2022-08-30T09:48:30;7.65;;;6.50;;
40284;SDS011;25997;50.214;19.354;2022-08-30T09:51:38;7.75;;;6.28;;
40284;SDS011;25997;50.214;19.354;2022-08-30T09:54:59;8.55;;;5.50;;
40284;SDS011;25997;50.214;19.354;2022-08-30T09:58:12;5.20;;;4.55;;
40284;SDS011;25997;50.214;19.354;2022-08-30T10:01:41;10.82;;;6.57;;
40284;SDS011;25997;50.214;19.354;2022-08-30T10:04:48;8.45;;;6.47;;
40284;SDS011;25997;50.214;19.354;2022-08-30T10:08:03;8.88;;;5.75;;
40284;SDS011;25997;50.214;19.354;2022-08-30T10:11:15;9.70;;;5.95;;
40284;SDS011;25997;50.214;19.354;2022-08-30T10:14:28;6.97;;;6.28;;
40284;SDS011;25997;50.214;19.354;2022-08-30T10:17:51;8.20;;;5.10;;
40284;SDS011;25997;50.214;19.354;2022-08-30T10:21:03;9.80;;;5.50;;
40284;SDS011;25997;50.214;19.354;2022-08-30T10:24:13;8.60;;;6.75;;
40284;SDS011;25997;50.214;19.354;2022-08-30T10:27:20;9.93;;;6.18;;
40284;SDS011;25997;50.214;19.354;2022-08-30T10:30:27;4.70;;;4.05;;
40284;SDS011;25997;50.214;19.354;2022-08-30T10:33:32;6.38;;;4.55;;
40284;SDS011;25997;50.214;19.354;2022-08-30T10:36:39;5.57;;;4.93;;
40284;SDS011;25997;50.214;19.354;2022-08-30T10:39:46;8.25;;;5.20;;
40284;SDS011;25997;50.214;19.354;2022-08-30T10:42:51;6.85;;;4.65;;
40284;SDS011;25997;50.214;19.354;2022-08-30T10:45:58;5.22;;;4.72;;
40284;SDS011;25997;50.214;19.354;2022-08-30T10:49:05;6.47;;;4.78;;
40284;SDS011;25997;50.214;19.354;2022-08-30T10:52:19;6.25;;;5.10;;
40284;SDS011;25997;50.214;19.354;2022-08-30T10:55:32;5.78;;;4.90;;
40284;SDS011;25997;50.214;19.354;2022-08-30T10:58:38;4.43;;;4.03;;
40284;SDS011;25997;50.214;19.354;2022-08-30T11:01:48;6.32;;;3.95;;
40284;SDS011;25997;50.214;19.354;2022-08-30T11:05:21;5.03;;;4.10;;
40284;SDS011;25997;50.214;19.354;2022-08-30T11:08:39;5.70;;;3.90;;
40284;SDS011;25997;50.214;19.354;2022-08-30T11:12:05;5.35;;;3.85;;
40284;SDS011;25997;50.214;19.354;2022-08-30T11:15:23;4.05;;;3.65;;
40284;SDS011;25997;50.214;19.354;2022-08-30T11:18:30;4.38;;;3.33;;
40284;SDS011;25997;50.214;19.354;2022-08-30T11:21:35;3.75;;;3.30;;
40284;SDS011;25997;50.214;19.354;2022-08-30T11:28:13;3.38;;;2.97;;
40284;SDS011;25997;50.214;19.354;2022-08-30T11:31:54;4.88;;;3.53;;
40284;SDS011;25997;50.214;19.354;2022-08-30T11:34:58;4.70;;;3.78;;
40284;SDS011;25997;50.214;19.354;2022-08-30T11:38:00;4.93;;;3.53;;
40284;SDS011;25997;50.214;19.354;2022-08-30T11:41:28;4.43;;;3.53;;
40284;SDS011;25997;50.214;19.354;2022-08-30T11:44:35;3.17;;;2.85;;
40284;SDS011;25997;50.214;19.354;2022-08-30T11:47:38;2.95;;;2.65;;
40284;SDS011;25997;50.214;19.354;2022-08-30T11:50:49;2.53;;;2.33;;
40284;SDS011;25997;50.214;19.354;2022-08-30T11:53:59;1.92;;;1.20;;
40284;SDS011;25997;50.214;19.354;2022-08-30T11:57:12;3.00;;;2.10;;
40284;SDS011;25997;50.214;19.354;2022-08-30T12:00:31;2.72;;;1.88;;
40284;SDS011;25997;50.214;19.354;2022-08-30T12:03:36;3.57;;;2.37;;
40284;SDS011;25997;50.214;19.354;2022-08-30T12:06:43;2.30;;;2.10;;
40284;SDS011;25997;50.214;19.354;2022-08-30T12:09:57;2.53;;;2.33;;
40284;SDS011;25997;50.214;19.354;2022-08-30T12:13:00;3.05;;;2.65;;
40284;SDS011;25997;50.214;19.354;2022-08-30T12:16:05;3.55;;;2.20;;
40284;SDS011;25997;50.214;19.354;2022-08-30T12:19:13;3.30;;;2.47;;
40284;SDS011;25997;50.214;19.354;2022-08-30T12:22:17;2.95;;;2.47;;
40284;SDS011;25997;50.214;19.354;2022-08-30T12:25:25;2.42;;;2.22;;
40284;SDS011;25997;50.214;19.354;2022-08-30T12:28:32;2.70;;;2.40;;
40284;SDS011;25997;50.214;19.354;2022-08-30T12:31:39;2.67;;;2.40;;
40284;SDS011;25997;50.214;19.354;2022-08-30T12:34:48;3.30;;;2.67;;
40284;SDS011;25997;50.214;19.354;2022-08-30T12:37:54;2.75;;;2.30;;
40284;SDS011;25997;50.214;19.354;2022-08-30T12:41:00;3.55;;;3.05;;
40284;SDS011;25997;50.214;19.354;2022-08-30T12:44:04;4.30;;;3.80;;
40284;SDS011;25997;50.214;19.354;2022-08-30T12:47:12;3.28;;;2.60;;
40284;SDS011;25997;50.214;19.354;2022-08-30T12:50:21;3.50;;;3.20;;
40284;SDS011;25997;50.214;19.354;2022-08-30T12:53:26;3.10;;;2.73;;
40284;SDS011;25997;50.214;19.354;2022-08-30T12:56:43;2.90;;;2.40;;
40284;SDS011;25997;50.214;19.354;2022-08-30T12:59:51;2.50;;;2.30;;
40284;SDS011;25997;50.214;19.354;2022-08-30T13:02:59;3.03;;;2.72;;
40284;SDS011;25997;50.214;19.354;2022-08-30T13:06:04;2.92;;;2.53;;
40284;SDS011;25997;50.214;19.354;2022-08-30T13:09:08;2.83;;;2.63;;
40284;SDS011;25997;50.214;19.354;2022-08-30T13:12:24;4.00;;;3.67;;
40284;SDS011;25997;50.214;19.354;2022-08-30T13:15:29;4.53;;;3.42;;
40284;SDS011;25997;50.214;19.354;2022-08-30T13:18:35;4.00;;;3.08;;
40284;SDS011;25997;50.214;19.354;2022-08-30T13:21:45;3.17;;;2.85;;
40284;SDS011;25997;50.214;19.354;2022-08-30T13:24:50;3.67;;;2.67;;
40284;SDS011;25997;50.214;19.354;2022-08-30T13:27:53;4.22;;;2.92;;
40284;SDS011;25997;50.214;19.354;2022-08-30T13:30:55;3.80;;;2.70;;
40284;SDS011;25997;50.214;19.354;2022-08-30T13:33:59;3.97;;;3.13;;
40284;SDS011;25997;50.214;19.354;2022-08-30T13:37:04;3.50;;;3.20;;
40284;SDS011;25997;50.214;19.354;2022-08-30T13:40:09;3.90;;;3.00;;
40284;SDS011;25997;50.214;19.354;2022-08-30T13:43:12;3.33;;;2.63;;
40284;SDS011;25997;50.214;19.354;2022-08-30T13:46:15;2.58;;;2.30;;
40284;SDS011;25997;50.214;19.354;2022-08-30T13:49:20;6.25;;;2.50;;
40284;SDS011;25997;50.214;19.354;2022-08-30T13:52:23;2.40;;;2.13;;
40284;SDS011;25997;50.214;19.354;2022-08-30T13:55:26;3.50;;;3.17;;
40284;SDS011;25997;50.214;19.354;2022-08-30T13:58:29;4.30;;;2.85;;
40284;SDS011;25997;50.214;19.354;2022-08-30T14:01:32;3.13;;;2.72;;
40284;SDS011;25997;50.214;19.354;2022-08-30T14:04:36;3.60;;;3.15;;
40284;SDS011;25997;50.214;19.354;2022-08-30T14:07:39;3.30;;;3.00;;
40284;SDS011;25997;50.214;19.354;2022-08-30T14:10:41;3.88;;;2.90;;
40284;SDS011;25997;50.214;19.354;2022-08-30T14:13:44;2.42;;;2.22;;
40284;SDS011;25997;50.214;19.354;2022-08-30T14:16:47;9.90;;;6.07;;
40284;SDS011;25997;50.214;19.354;2022-08-30T14:19:52;5.25;;;4.45;;
40284;SDS011;25997;50.214;19.354;2022-08-30T14:22:54;7.78;;;5.13;;
40284;SDS011;25997;50.214;19.354;2022-08-30T14:25:57;7.30;;;5.10;;
40284;SDS011;25997;50.214;19.354;2022-08-30T14:29:01;7.15;;;4.70;;
40284;SDS011;25997;50.214;19.354;2022-08-30T14:32:05;5.68;;;3.60;;
40284;SDS011;25997;50.214;19.354;2022-08-30T14:35:09;4.75;;;2.72;;
40284;SDS011;25997;50.214;19.354;2022-08-30T14:38:13;3.17;;;2.80;;
40284;SDS011;25997;50.214;19.354;2022-08-30T14:44:22;3.42;;;2.60;;
40284;SDS011;25997;50.214;19.354;2022-08-30T14:47:26;4.80;;;3.30;;
40284;SDS011;25997;50.214;19.354;2022-08-30T14:50:30;8.25;;;5.00;;
40284;SDS011;25997;50.214;19.354;2022-08-30T14:53:32;7.18;;;6.25;;
40284;SDS011;25997;50.214;19.354;2022-08-30T14:56:35;5.22;;;4.47;;
40284;SDS011;25997;50.214;19.354;2022-08-30T14:59:38;10.95;;;7.05;;
40284;SDS011;25997;50.214;19.354;2022-08-30T15:02:41;5.85;;;5.15;;
40284;SDS011;25997;50.214;19.354;2022-08-30T15:05:48;5.97;;;4.07;;
40284;SDS011;25997;50.214;19.354;2022-08-30T15:08:51;3.35;;;2.67;;
40284;SDS011;25997;50.214;19.354;2022-08-30T15:11:54;4.10;;;3.70;;
40284;SDS011;25997;50.214;19.354;2022-08-30T15:15:00;3.75;;;2.90;;
40284;SDS011;25997;50.214;19.354;2022-08-30T15:18:03;3.70;;;2.65;;
40284;SDS011;25997;50.214;19.354;2022-08-30T15:21:07;4.05;;;2.75;;
40284;SDS011;25997;50.214;19.354;2022-08-30T15:24:11;3.38;;;3.00;;
40284;SDS011;25997;50.214;19.354;2022-08-30T15:27:15;4.10;;;3.10;;
40284;SDS011;25997;50.214;19.354;2022-08-30T15:30:18;12.02;;;7.20;;
40284;SDS011;25997;50.214;19.354;2022-08-30T15:33:20;9.93;;;5.85;;
40284;SDS011;25997;50.214;19.354;2022-08-30T15:36:25;6.70;;;4.80;;
40284;SDS011;25997;50.214;19.354;2022-08-30T15:39:29;8.05;;;5.72;;
40284;SDS011;25997;50.214;19.354;2022-08-30T15:42:32;6.38;;;4.45;;
40284;SDS011;25997;50.214;19.354;2022-08-30T15:45:35;6.72;;;4.80;;
40284;SDS011;25997;50.214;19.354;2022-08-30T15:48:38;3.90;;;3.50;;
40284;SDS011;25997;50.214;19.354;2022-08-30T15:51:42;5.15;;;3.75;;
40284;SDS011;25997;50.214;19.354;2022-08-30T15:54:45;4.03;;;3.42;;
40284;SDS011;25997;50.214;19.354;2022-08-30T15:57:47;4.15;;;3.60;;
40284;SDS011;25997;50.214;19.354;2022-08-30T16:00:50;5.38;;;3.58;;
40284;SDS011;25997;50.214;19.354;2022-08-30T16:03:52;6.72;;;3.70;;
40284;SDS011;25997;50.214;19.354;2022-08-30T16:06:56;5.95;;;3.63;;
40284;SDS011;25997;50.214;19.354;2022-08-30T16:09:59;4.63;;;3.80;;
40284;SDS011;25997;50.214;19.354;2022-08-30T16:13:01;4.90;;;3.40;;
40284;SDS011;25997;50.214;19.354;2022-08-30T16:16:05;4.20;;;3.80;;
40284;SDS011;25997;50.214;19.354;2022-08-30T16:19:09;4.18;;;3.78;;
40284;SDS011;25997;50.214;19.354;2022-08-30T16:22:14;4.65;;;3.72;;
40284;SDS011;25997;50.214;19.354;2022-08-30T16:25:16;6.30;;;4.78;;
40284;SDS011;25997;50.214;19.354;2022-08-30T16:28:19;6.35;;;5.28;;
40284;SDS011;25997;50.214;19.354;2022-08-30T16:31:21;6.25;;;5.65;;
40284;SDS011;25997;50.214;19.354;2022-08-30T16:34:25;11.93;;;7.72;;
40284;SDS011;25997;50.214;19.354;2022-08-30T16:37:29;17.88;;;14.70;;
40284;SDS011;25997;50.214;19.354;2022-08-30T16:40:32;15.70;;;14.02;;
40284;SDS011;25997;50.214;19.354;2022-08-30T16:43:37;10.45;;;8.02;;
40284;SDS011;25997;50.214;19.354;2022-08-30T16:46:40;9.27;;;6.15;;
40284;SDS011;25997;50.214;19.354;2022-08-30T16:49:43;6.43;;;5.65;;
40284;SDS011;25997;50.214;19.354;2022-08-30T16:52:47;5.43;;;4.43;;
40284;SDS011;25997;50.214;19.354;2022-08-30T16:55:50;7.63;;;4.70;;
40284;SDS011;25997;50.214;19.354;2022-08-30T16:58:52;8.95;;;5.50;;
40284;SDS011;25997;50.214;19.354;2022-08-30T17:01:56;10.05;;;5.63;;
40284;SDS011;25997;50.214;19.354;2022-08-30T17:04:59;12.68;;;8.80;;
40284;SDS011;25997;50.214;19.354;2022-08-30T17:08:03;12.48;;;8.48;;
40284;SDS011;25997;50.214;19.354;2022-08-30T17:11:06;13.52;;;8.30;;
40284;SDS011;25997;50.214;19.354;2022-08-30T17:14:10;11.45;;;7.95;;
40284;SDS011;25997;50.214;19.354;2022-08-30T17:17:12;9.43;;;7.57;;
40284;SDS011;25997;50.214;19.354;2022-08-30T17:20:15;14.80;;;7.30;;
40284;SDS011;25997;50.214;19.354;2022-08-30T17:23:19;6.82;;;5.20;;
40284;SDS011;25997;50.214;19.354;2022-08-30T17:26:22;10.68;;;6.40;;
40284;SDS011;25997;50.214;19.354;2022-08-30T17:29:25;8.63;;;4.90;;
40284;SDS011;25997;50.214;19.354;2022-08-30T17:32:28;8.90;;;4.88;;
40284;SDS011;25997;50.214;19.354;2022-08-30T17:35:30;10.95;;;7.10;;
40284;SDS011;25997;50.214;19.354;2022-08-30T17:38:34;7.80;;;5.80;;
40284;SDS011;25997;50.214;19.354;2022-08-30T17:41:37;12.48;;;6.97;;
40284;SDS011;25997;50.214;19.354;2022-08-30T17:44:40;13.13;;;9.07;;
40284;SDS011;25997;50.214;19.354;2022-08-30T17:47:43;48.85;;;37.20;;
40284;SDS011;25997;50.214;19.354;2022-08-30T17:50:53;21.27;;;16.70;;
40284;SDS011;25997;50.214;19.354;2022-08-30T17:53:58;13.77;;;10.15;;
40284;SDS011;25997;50.214;19.354;2022-08-30T17:57:01;15.95;;;10.77;;
40284;SDS011;25997;50.214;19.354;2022-08-30T18:00:07;12.60;;;10.35;;
40284;SDS011;25997;50.214;19.354;2022-08-30T18:03:11;10.88;;;9.77;;
40284;SDS011;25997;50.214;19.354;2022-08-30T18:06:14;10.45;;;9.35;;
40284;SDS011;25997;50.214;19.354;2022-08-30T18:09:18;12.07;;;9.50;;
40284;SDS011;25997;50.214;19.354;2022-08-30T18:12:21;11.75;;;9.38;;
40284;SDS011;25997;50.214;19.354;2022-08-30T18:15:24;12.25;;;9.27;;